Sheridan, Michigan
Current Conditions -  °F | °C
As of 9:54 AM on Wednesday 22 Oct 2014 (Local Time) from KY70 Reporting Station
Overcast Overcast  
Wind Chill: 40°   Ceiling: 1400
Heat Index: 40°   Visibility: 10mi
Dew Point: 37°   Wind: 3mph
Humidity: 91%   Direction: 30°NNE
Pressure: 30.36"   Gusts: NA
Location:  43.21°N, 85.07°W
Report Text: KY70 221354Z AUTO 03003KT 10SM OVC014 04/03 A3036 RMK AO2 T00440030
Loading
Personal Weather Stations






























Interactive Weather Map
Tropical Storm Tracking
New forecast layout! Learn more

10-Day Weather Forecast

Advertisements
Track Severe Weather on mobile